Time,TemperatureF,DewpointF,PressureIn,WindDirection,WindDirectionDegrees,WindSpeedMPH,WindSpeedGustMPH,Humidity,HourlyPrecipIn,Conditions,Clouds,dailyrainin,SolarRadiationWatts/m^2,SoftwareType,DateUTC
2013-11-16 00:01:00,74.8,74.8,29.96,SSE,158,0.0,0.0,100,0.01,,,1.43,0.0,meteohub,2013-11-16 04:01:00,
2013-11-16 00:06:00,75.0,75.0,29.96,SSE,160,0.0,0.0,100,0.00,,,0.00,0.0,meteohub,2013-11-16 04:06:00,
2013-11-16 00:11:00,75.0,75.0,29.96,SSE,158,0.0,0.0,100,0.00,,,0.00,0.0,meteohub,2013-11-16 04:11:00,
2013-11-16 00:16:00,75.0,75.0,29.96,SSE,160,0.0,0.0,100,0.00,,,0.00,0.0,meteohub,2013-11-16 04:16:00,
2013-11-16 00:21:00,75.4,75.4,29.96,SSE,158,0.0,0.0,100,0.00,,,0.00,0.0,meteohub,2013-11-16 04:21:00,
2013-11-16 00:26:00,75.4,75.4,29.96,SSE,160,0.0,0.0,100,0.00,,,0.00,0.0,meteohub,2013-11-16 04:26:00,
2013-11-16 00:31:00,75.4,75.4,29.96,SSE,160,0.0,0.0,100,0.00,,,0.00,0.0,meteohub,2013-11-16 04:31:00,
2013-11-16 00:36:00,75.4,75.4,29.96,SSE,160,0.0,0.0,100,0.00,,,0.00,0.0,meteohub,2013-11-16 04:36:00,
2013-11-16 00:41:00,75.4,75.4,29.96,SSE,162,0.0,0.0,100,0.00,,,0.00,0.0,meteohub,2013-11-16 04:41:00,
2013-11-16 00:46:00,75.4,75.4,29.96,SSE,161,0.0,0.0,100,0.00,,,0.00,0.0,meteohub,2013-11-16 04:46:00,
2013-11-16 00:51:00,75.4,75.4,29.96,SSE,161,0.0,0.0,100,0.00,,,0.00,0.0,meteohub,2013-11-16 04:51:00,
2013-11-16 00:56:00,75.4,75.4,29.96,SSE,161,0.0,0.0,100,0.00,,,0.00,0.0,meteohub,2013-11-16 04:56:00,
2013-11-16 01:01:00,75.4,75.4,29.95,SSE,158,0.0,0.0,100,0.00,,,0.00,0.0,meteohub,2013-11-16 05:01:00,
2013-11-16 01:02:00,75.4,75.4,29.95,SSE,160,0.0,0.0,100,0.00,,,0.00,0.0,meteohub,2013-11-16 05:02:00,
2013-11-16 01:07:00,75.4,75.4,29.95,SSE,160,0.0,0.0,100,0.00,,,0.00,0.0,meteohub,2013-11-16 05:07:00,
2013-11-16 01:12:00,75.4,75.4,29.95,SSE,160,0.0,0.0,100,0.00,,,0.00,0.0,meteohub,2013-11-16 05:12:00,
2013-11-16 01:17:00,75.4,75.4,29.95,SSE,160,0.0,0.0,100,0.00,,,0.00,0.0,meteohub,2013-11-16 05:17:00,
2013-11-16 01:23:00,75.6,75.6,29.95,SSE,160,0.0,0.0,100,0.00,,,0.00,0.0,meteohub,2013-11-16 05:23:00,
2013-11-16 01:28:00,75.6,75.6,29.94,SSE,158,0.0,0.0,100,0.00,,,0.00,0.0,meteohub,2013-11-16 05:28:00,
2013-11-16 01:33:00,75.6,75.6,29.94,SSE,160,0.0,0.0,100,0.00,,,0.00,0.0,meteohub,2013-11-16 05:33:00,
2013-11-16 01:38:00,75.6,75.6,29.94,SSE,158,0.0,0.0,100,0.00,,,0.00,0.0,meteohub,2013-11-16 05:38:00,
2013-11-16 01:43:00,75.6,75.6,29.94,SSE,158,0.0,0.0,100,0.00,,,0.00,0.0,meteohub,2013-11-16 05:43:00,
2013-11-16 01:48:00,75.6,75.6,29.94,SSE,160,0.0,0.0,100,0.00,,,0.00,0.0,meteohub,2013-11-16 05:48:00,
2013-11-16 01:53:00,75.6,75.6,29.94,SSE,160,0.0,0.0,100,0.00,,,0.00,0.0,meteohub,2013-11-16 05:53:00,
2013-11-16 01:58:00,75.6,75.6,29.94,SSE,158,0.0,0.0,100,0.00,,,0.00,0.0,meteohub,2013-11-16 05:58:00,
2013-11-16 02:03:00,75.6,75.6,29.94,SSE,158,0.0,0.0,100,0.00,,,0.00,0.0,meteohub,2013-11-16 06:03:00,
2013-11-16 02:08:00,75.6,75.6,29.94,SSE,160,0.0,0.0,100,0.00,,,0.00,0.0,meteohub,2013-11-16 06:08:00,
2013-11-16 02:13:00,75.6,75.6,29.93,SSE,160,0.0,0.0,100,0.00,,,0.00,0.0,meteohub,2013-11-16 06:13:00,
2013-11-16 02:18:00,75.4,75.4,29.93,SSE,160,0.0,0.0,100,0.00,,,0.00,0.0,meteohub,2013-11-16 06:18:00,
2013-11-16 02:23:00,75.4,75.4,29.93,SSE,160,0.0,0.0,100,0.00,,,0.00,0.0,meteohub,2013-11-16 06:23:00,
2013-11-16 02:28:00,75.4,75.4,29.93,SSE,158,0.0,0.0,100,0.00,,,0.00,0.0,meteohub,2013-11-16 06:28:00,
2013-11-16 02:33:00,75.4,75.4,29.93,SSE,161,0.0,0.0,100,0.00,,,0.00,0.0,meteohub,2013-11-16 06:33:00,
2013-11-16 02:38:00,75.4,75.4,29.93,SSE,160,0.0,0.0,100,0.00,,,0.00,0.0,meteohub,2013-11-16 06:38:00,
2013-11-16 02:43:00,75.4,75.4,29.93,SSE,160,0.0,0.0,100,0.00,,,0.00,0.0,meteohub,2013-11-16 06:43:00,
2013-11-16 02:48:00,75.4,75.4,29.93,SSE,160,0.0,0.0,100,0.00,,,0.00,0.0,meteohub,2013-11-16 06:48:00,
2013-11-16 02:53:00,75.4,75.4,29.93,SSE,160,0.0,0.0,100,0.00,,,0.00,0.0,meteohub,2013-11-16 06:53:00,
2013-11-16 02:58:00,75.4,75.4,29.93,SSE,158,0.0,0.0,100,0.00,,,0.00,0.0,meteohub,2013-11-16 06:58:00,
2013-11-16 03:03:00,75.4,75.4,29.93,SSE,160,0.0,0.0,100,0.00,,,0.00,0.0,meteohub,2013-11-16 07:03:00,
2013-11-16 03:08:00,75.6,75.6,29.93,SSE,160,0.0,0.0,100,0.00,,,0.00,0.0,meteohub,2013-11-16 07:08:00,
2013-11-16 03:13:00,75.6,75.6,29.93,SSE,161,0.0,0.0,100,0.00,,,0.00,0.0,meteohub,2013-11-16 07:13:00,
2013-11-16 03:18:00,75.6,75.6,29.93,SSE,160,0.0,0.0,100,0.00,,,0.00,0.0,meteohub,2013-11-16 07:18:00,
2013-11-16 03:23:00,75.6,75.6,29.93,SSE,160,0.0,0.0,100,0.00,,,0.00,0.0,meteohub,2013-11-16 07:23:00,
2013-11-16 03:28:00,75.6,75.6,29.93,SSE,158,0.0,0.0,100,0.00,,,0.00,0.0,meteohub,2013-11-16 07:28:00,
2013-11-16 03:33:00,75.6,75.6,29.93,SSE,161,0.0,0.0,100,0.00,,,0.00,0.0,meteohub,2013-11-16 07:33:00,
2013-11-16 03:38:00,75.4,75.4,29.93,SSE,160,0.0,0.0,100,0.00,,,0.00,0.0,meteohub,2013-11-16 07:38:00,
2013-11-16 03:43:00,75.4,75.4,29.93,SSE,158,0.0,0.0,100,0.00,,,0.00,0.0,meteohub,2013-11-16 07:43:00,
2013-11-16 03:48:00,75.4,75.4,29.93,SSE,162,0.0,0.0,100,0.00,,,0.00,0.0,meteohub,2013-11-16 07:48:00,
2013-11-16 03:53:00,75.4,75.4,29.93,SSE,160,0.0,0.0,100,0.00,,,0.00,0.0,meteohub,2013-11-16 07:53:00,
2013-11-16 03:58:00,75.4,75.4,29.93,SSE,160,0.0,0.0,100,0.00,,,0.00,0.0,meteohub,2013-11-16 07:58:00,
2013-11-16 04:03:00,75.4,75.4,29.93,SSE,160,0.0,0.0,100,0.00,,,0.00,0.0,meteohub,2013-11-16 08:03:00,
2013-11-16 04:09:00,75.4,75.4,29.93,SSE,160,0.0,0.0,100,0.00,,,0.00,0.0,meteohub,2013-11-16 08:09:00,
2013-11-16 04:13:00,75.4,75.4,29.93,SSE,160,0.0,0.0,100,0.00,,,0.00,0.0,meteohub,2013-11-16 08:13:00,
2013-11-16 04:19:00,75.4,75.4,29.93,SSE,160,0.0,0.0,100,0.00,,,0.00,0.0,meteohub,2013-11-16 08:19:00,
2013-11-16 04:24:00,75.4,75.4,29.93,SSE,160,0.0,0.0,100,0.00,,,0.00,0.0,meteohub,2013-11-16 08:24:00,
2013-11-16 04:29:00,75.4,75.4,29.93,SSE,158,0.0,0.0,100,0.00,,,0.00,0.0,meteohub,2013-11-16 08:29:00,
2013-11-16 04:34:00,75.4,75.4,29.93,SSE,154,0.0,0.0,100,0.00,,,0.00,0.0,meteohub,2013-11-16 08:34:00,
2013-11-16 04:39:00,75.4,75.4,29.93,SSE,161,0.0,0.0,100,0.00,,,0.00,0.0,meteohub,2013-11-16 08:39:00,
2013-11-16 04:44:00,75.4,75.4,29.93,SSE,158,0.0,0.0,100,0.00,,,0.00,0.0,meteohub,2013-11-16 08:44:00,
2013-11-16 04:49:00,75.4,75.4,29.93,SSE,160,0.0,0.0,100,0.00,,,0.00,0.0,meteohub,2013-11-16 08:49:00,
2013-11-16 04:54:00,75.4,75.4,29.93,SSE,160,0.0,0.0,100,0.00,,,0.00,0.0,meteohub,2013-11-16 08:54:00,
2013-11-16 04:59:00,75.4,75.4,29.93,SSE,160,0.0,0.0,100,0.00,,,0.00,0.0,meteohub,2013-11-16 08:59:00,
2013-11-16 05:04:00,75.0,75.0,29.93,SSE,160,0.0,0.0,100,0.00,,,0.00,0.0,meteohub,2013-11-16 09:04:00,
2013-11-16 05:09:00,75.0,75.0,29.93,SSE,160,0.0,0.0,100,0.00,,,0.00,0.0,meteohub,2013-11-16 09:09:00,
2013-11-16 05:14:00,75.0,75.0,29.93,SSE,161,0.0,0.0,100,0.00,,,0.00,0.0,meteohub,2013-11-16 09:14:00,
2013-11-16 05:19:00,75.0,75.0,29.93,SSE,160,0.0,0.0,100,0.00,,,0.00,0.0,meteohub,2013-11-16 09:19:00,
2013-11-16 05:24:00,75.0,75.0,29.93,SSE,157,0.0,0.0,100,0.00,,,0.00,0.0,meteohub,2013-11-16 09:24:00,
2013-11-16 05:29:00,75.0,75.0,29.93,SSE,158,0.0,0.0,100,0.00,,,0.00,0.0,meteohub,2013-11-16 09:29:00,
2013-11-16 05:34:00,74.8,74.8,29.93,SSE,158,0.0,0.0,100,0.00,,,0.00,0.0,meteohub,2013-11-16 09:34:00,
2013-11-16 05:39:00,74.8,74.8,29.93,SSE,160,0.0,0.0,100,0.00,,,0.00,0.0,meteohub,2013-11-16 09:39:00,
2013-11-16 05:44:00,74.7,74.7,29.93,SSE,160,0.0,0.0,100,0.00,,,0.00,0.0,meteohub,2013-11-16 09:44:00,
2013-11-16 05:49:00,74.7,74.7,29.93,SSE,162,0.0,0.0,100,0.00,,,0.00,0.0,meteohub,2013-11-16 09:49:00,
2013-11-16 05:54:00,74.7,74.7,29.93,SSE,160,0.0,0.0,100,0.00,,,0.00,0.0,meteohub,2013-11-16 09:54:00,
2013-11-16 05:59:00,74.7,74.7,29.94,SSE,161,0.0,0.0,100,0.00,,,0.00,0.0,meteohub,2013-11-16 09:59:00,
2013-11-16 06:04:00,74.7,74.7,29.94,SSE,160,0.0,0.0,100,0.00,,,0.00,0.0,meteohub,2013-11-16 10:04:00,
2013-11-16 06:09:00,74.7,74.7,29.94,SSE,158,0.0,0.0,100,0.00,,,0.00,0.0,meteohub,2013-11-16 10:09:00,
2013-11-16 06:14:00,74.7,74.7,29.94,SSE,160,0.0,0.0,100,0.00,,,0.00,0.0,meteohub,2013-11-16 10:14:00,
2013-11-16 06:19:00,74.7,74.7,29.94,SSE,158,0.0,0.0,100,0.00,,,0.00,0.0,meteohub,2013-11-16 10:19:00,
2013-11-16 06:24:00,74.7,74.7,29.94,SSE,160,0.0,0.0,100,0.00,,,0.00,0.0,meteohub,2013-11-16 10:24:00,
2013-11-16 06:29:00,74.7,74.7,29.94,SSE,160,0.0,0.0,100,0.00,,,0.00,0.0,meteohub,2013-11-16 10:29:00,
2013-11-16 06:34:00,74.7,74.7,29.94,SSE,160,0.0,0.0,100,0.00,,,0.00,0.0,meteohub,2013-11-16 10:34:00,
2013-11-16 06:39:00,74.5,74.5,29.94,SSE,160,0.0,0.0,100,0.00,,,0.00,5.0,meteohub,2013-11-16 10:39:00,
2013-11-16 06:44:00,74.5,74.5,29.94,SSE,161,0.0,0.0,100,0.00,,,0.00,11.0,meteohub,2013-11-16 10:44:00,
2013-11-16 06:49:00,74.5,74.5,29.94,SSE,158,0.0,0.0,100,0.00,,,0.00,23.0,meteohub,2013-11-16 10:49:00,
2013-11-16 06:54:00,74.7,74.7,29.94,SSE,160,0.0,0.0,100,0.00,,,0.00,48.0,meteohub,2013-11-16 10:54:00,
2013-11-16 06:59:00,74.7,74.7,29.95,SSE,160,0.0,0.0,100,0.00,,,0.00,77.0,meteohub,2013-11-16 10:59:00,
2013-11-16 07:04:00,74.7,74.7,29.95,SSE,160,0.0,0.0,100,0.00,,,0.00,97.0,meteohub,2013-11-16 11:04:00,
2013-11-16 07:09:00,74.8,74.8,29.95,SSE,161,0.0,0.0,100,0.00,,,0.00,114.0,meteohub,2013-11-16 11:09:00,
2013-11-16 07:14:00,75.0,75.0,29.95,SSE,161,0.0,0.0,100,0.00,,,0.00,132.0,meteohub,2013-11-16 11:14:00,
2013-11-16 07:19:00,75.0,75.0,29.95,SSE,160,0.0,0.0,100,0.00,,,0.00,151.0,meteohub,2013-11-16 11:19:00,
2013-11-16 07:24:00,75.4,75.4,29.95,SSE,161,0.0,0.0,100,0.00,,,0.00,171.0,meteohub,2013-11-16 11:24:00,
2013-11-16 07:29:00,75.4,75.4,29.96,SSE,161,0.0,0.0,100,0.00,,,0.00,188.0,meteohub,2013-11-16 11:29:00,
2013-11-16 07:34:00,75.4,75.4,29.96,SSE,160,0.0,0.0,100,0.00,,,0.00,206.0,meteohub,2013-11-16 11:34:00,
2013-11-16 07:39:00,75.4,75.4,29.96,SSE,160,0.0,0.0,100,0.00,,,0.00,222.0,meteohub,2013-11-16 11:39:00,
2013-11-16 07:44:00,75.6,75.6,29.96,SSE,158,0.0,0.0,100,0.00,,,0.00,239.0,meteohub,2013-11-16 11:44:00,
2013-11-16 07:49:00,75.9,75.9,29.96,SSE,160,0.0,0.0,100,0.00,,,0.00,257.0,meteohub,2013-11-16 11:49:00,
2013-11-16 07:54:00,76.1,76.1,29.96,SSE,160,0.0,0.0,100,0.00,,,0.00,273.0,meteohub,2013-11-16 11:54:00,
2013-11-16 07:59:00,76.3,76.3,29.96,SSE,160,0.0,0.0,100,0.00,,,0.00,287.0,meteohub,2013-11-16 11:59:00,
2013-11-16 08:04:00,76.6,76.6,29.96,SSE,160,0.0,0.0,100,0.00,,,0.00,304.0,meteohub,2013-11-16 12:04:00,
2013-11-16 08:09:00,77.2,77.2,29.96,SSE,160,0.0,0.0,100,0.00,,,0.00,318.0,meteohub,2013-11-16 12:09:00,
2013-11-16 08:14:00,77.5,77.5,29.97,SSE,160,0.0,0.0,100,0.00,,,0.00,331.0,meteohub,2013-11-16 12:14:00,
2013-11-16 08:19:00,77.7,77.7,29.97,SSE,161,0.0,0.0,100,0.00,,,0.00,362.0,meteohub,2013-11-16 12:19:00,
2013-11-16 08:24:00,77.9,77.9,29.97,SSE,160,0.0,0.0,100,0.00,,,0.00,389.0,meteohub,2013-11-16 12:24:00,
2013-11-16 08:29:00,77.9,77.9,29.98,SSE,160,0.0,0.0,100,0.00,,,0.00,406.0,meteohub,2013-11-16 12:29:00,
2013-11-16 08:34:00,78.1,78.1,29.98,SSE,160,0.0,0.0,100,0.00,,,0.00,399.0,meteohub,2013-11-16 12:34:00,
2013-11-16 08:39:00,78.3,78.3,29.98,SSE,158,0.0,0.0,100,0.00,,,0.00,415.0,meteohub,2013-11-16 12:39:00,
2013-11-16 08:44:00,78.3,78.3,29.98,SSE,161,0.0,0.0,100,0.00,,,0.00,426.0,meteohub,2013-11-16 12:44:00,
2013-11-16 08:49:00,78.3,78.3,29.98,SSE,160,0.0,0.0,100,0.00,,,0.00,452.0,meteohub,2013-11-16 12:49:00,
2013-11-16 08:54:00,78.4,78.4,29.98,SSE,160,0.0,0.0,100,0.00,,,0.00,470.0,meteohub,2013-11-16 12:54:00,
2013-11-16 08:59:00,78.6,78.6,29.98,SSE,160,0.0,0.0,100,0.00,,,0.00,477.0,meteohub,2013-11-16 12:59:00,
2013-11-16 09:04:00,78.8,78.8,29.98,SSE,160,0.0,0.0,100,0.00,,,0.00,449.0,meteohub,2013-11-16 13:04:00,
2013-11-16 09:09:00,78.4,78.4,29.98,SSE,160,0.0,0.0,100,0.00,,,0.00,521.0,meteohub,2013-11-16 13:09:00,
2013-11-16 09:14:00,78.4,78.4,29.99,NE,55,0.0,0.0,100,0.00,,,0.00,531.0,meteohub,2013-11-16 13:14:00,
2013-11-16 09:19:00,79.0,79.0,29.99,NE,55,0.0,1.0,100,0.00,,,0.00,551.0,meteohub,2013-11-16 13:19:00,
2013-11-16 09:24:00,79.3,79.3,29.99,ENE,62,0.0,1.0,100,0.00,,,0.00,584.0,meteohub,2013-11-16 13:24:00,
2013-11-16 09:29:00,79.3,79.3,29.99,ENE,78,0.0,1.0,100,0.00,,,0.00,653.0,meteohub,2013-11-16 13:29:00,
2013-11-16 09:34:00,80.1,80.1,29.99,East,79,0.0,1.0,100,0.00,,,0.00,691.0,meteohub,2013-11-16 13:34:00,
2013-11-16 09:39:00,80.4,80.4,29.99,East,82,0.0,3.0,100,0.00,,,0.00,215.0,meteohub,2013-11-16 13:39:00,
2013-11-16 09:44:00,80.8,80.8,29.99,East,85,0.0,3.0,100,0.00,,,0.00,776.0,meteohub,2013-11-16 13:44:00,
2013-11-16 09:49:00,81.1,80.8,29.99,NE,54,2.0,6.0,99,0.00,,,0.00,276.0,meteohub,2013-11-16 13:49:00,
2013-11-16 09:54:00,81.7,81.1,29.99,NE,54,0.0,8.0,98,0.00,,,0.00,313.0,meteohub,2013-11-16 13:54:00,
2013-11-16 09:59:00,81.9,80.6,29.99,ENE,69,0.0,8.0,96,0.00,,,0.00,760.0,meteohub,2013-11-16 13:59:00,
2013-11-16 10:04:00,82.4,80.4,29.99,ENE,75,0.0,8.0,94,0.00,,,0.00,795.0,meteohub,2013-11-16 14:04:00,
2013-11-16 10:09:00,82.9,80.4,29.99,NNE,30,0.0,8.0,92,0.00,,,0.00,246.0,meteohub,2013-11-16 14:09:00,
2013-11-16 10:14:00,83.1,79.5,29.99,NNE,30,9.0,9.0,89,0.00,,,0.00,225.0,meteohub,2013-11-16 14:14:00,
2013-11-16 10:19:00,83.7,79.3,29.99,NE,40,6.0,9.0,87,0.00,,,0.00,171.0,meteohub,2013-11-16 14:19:00,
2013-11-16 10:24:00,83.8,78.8,29.99,ENE,68,0.0,10.0,85,0.00,,,0.00,165.0,meteohub,2013-11-16 14:24:00,
2013-11-16 10:29:00,84.0,79.0,29.99,ENE,71,0.0,10.0,85,0.00,,,0.00,806.0,meteohub,2013-11-16 14:29:00,
2013-11-16 10:34:00,84.4,79.0,29.99,East,82,5.0,8.0,84,0.00,,,0.00,771.0,meteohub,2013-11-16 14:34:00,
2013-11-16 10:39:00,84.9,78.8,29.99,NE,47,0.0,8.0,82,0.00,,,0.00,815.0,meteohub,2013-11-16 14:39:00,
2013-11-16 10:44:00,85.3,78.8,29.99,East,92,0.0,9.0,81,0.00,,,0.00,845.0,meteohub,2013-11-16 14:44:00,
2013-11-16 10:49:00,85.6,79.2,29.99,ENE,65,0.0,9.0,81,0.00,,,0.00,1006.0,meteohub,2013-11-16 14:49:00,
2013-11-16 10:54:00,86.2,79.0,29.99,NE,42,0.0,9.0,79,0.00,,,0.00,1021.0,meteohub,2013-11-16 14:54:00,
2013-11-16 10:59:00,86.5,79.7,29.99,North,6,9.0,9.0,80,0.00,,,0.00,903.0,meteohub,2013-11-16 14:59:00,
2013-11-16 11:04:00,86.5,79.7,29.99,North,3,6.0,10.0,80,0.00,,,0.00,894.0,meteohub,2013-11-16 15:04:00,
2013-11-16 11:09:00,86.5,80.1,29.99,NNE,16,5.0,11.0,81,0.00,,,0.00,266.0,meteohub,2013-11-16 15:09:00,
2013-11-16 11:14:00,86.4,79.9,29.98,NNE,25,6.0,11.0,81,0.00,,,0.00,1013.0,meteohub,2013-11-16 15:14:00,
2013-11-16 11:19:00,85.8,79.3,29.98,NNE,28,5.0,11.0,81,0.00,,,0.00,734.0,meteohub,2013-11-16 15:19:00,
2013-11-16 11:24:00,85.6,79.5,29.98,NNE,28,0.0,11.0,82,0.00,,,0.00,734.0,meteohub,2013-11-16 15:24:00,
2013-11-16 11:29:00,85.6,79.2,29.98,ENE,65,0.0,11.0,81,0.00,,,0.00,952.0,meteohub,2013-11-16 15:29:00,
2013-11-16 11:34:00,85.6,78.4,29.98,ENE,64,3.0,10.0,79,0.00,,,0.00,466.0,meteohub,2013-11-16 15:34:00,
2013-11-16 11:39:00,85.6,77.9,29.98,ENE,68,3.0,10.0,78,0.00,,,0.00,236.0,meteohub,2013-11-16 15:39:00,
2013-11-16 11:44:00,85.8,78.1,29.97,ENE,68,0.0,8.0,78,0.00,,,0.00,135.0,meteohub,2013-11-16 15:44:00,
2013-11-16 11:49:00,85.8,78.1,29.97,NE,38,6.0,8.0,78,0.00,,,0.00,897.0,meteohub,2013-11-16 15:49:00,
2013-11-16 11:54:00,86.2,78.4,29.97,East,79,0.0,10.0,78,0.00,,,0.00,936.0,meteohub,2013-11-16 15:54:00,
2013-11-16 11:59:00,86.5,78.4,29.96,ENE,72,5.0,10.0,77,0.00,,,0.00,340.0,meteohub,2013-11-16 15:59:00,
2013-11-16 12:04:00,86.7,78.6,29.96,NE,42,5.0,10.0,77,0.00,,,0.00,936.0,meteohub,2013-11-16 16:04:00,
2013-11-16 12:09:00,87.1,78.6,29.96,ENE,62,4.0,9.0,76,0.00,,,0.00,948.0,meteohub,2013-11-16 16:09:00,
2013-11-16 12:14:00,87.4,78.6,29.96,NE,51,7.0,9.0,75,0.00,,,0.00,794.0,meteohub,2013-11-16 16:14:00,
2013-11-16 12:19:00,87.8,78.4,29.96,NE,34,0.0,10.0,74,0.00,,,0.00,794.0,meteohub,2013-11-16 16:19:00,
2013-11-16 12:24:00,88.0,78.6,29.96,NE,49,1.0,10.0,74,0.00,,,0.00,998.0,meteohub,2013-11-16 16:24:00,
2013-11-16 12:29:00,88.2,78.8,29.95,North,0,1.0,10.0,74,0.00,,,0.00,1147.0,meteohub,2013-11-16 16:29:00,
2013-11-16 12:35:00,88.0,79.5,29.95,NNE,25,0.0,10.0,76,0.00,,,0.00,318.0,meteohub,2013-11-16 16:35:00,
2013-11-16 12:40:00,87.4,79.3,29.95,North,3,10.0,16.0,77,0.00,,,0.00,273.0,meteohub,2013-11-16 16:40:00,
2013-11-16 12:45:00,86.7,79.0,29.94,NNE,18,0.0,16.0,78,0.00,,,0.00,357.0,meteohub,2013-11-16 16:45:00,
2013-11-16 12:50:00,85.8,77.7,29.94,NNE,28,9.0,13.0,77,0.00,,,0.00,456.0,meteohub,2013-11-16 16:50:00,
2013-11-16 12:55:00,85.3,76.8,29.94,North,0,10.0,12.0,76,0.00,,,0.00,401.0,meteohub,2013-11-16 16:55:00,
2013-11-16 13:00:00,85.3,76.8,29.94,North,0,4.0,12.0,76,0.00,,,0.00,413.0,meteohub,2013-11-16 17:00:00,
2013-11-16 13:05:00,85.1,77.0,29.94,North,6,9.0,12.0,77,0.00,,,0.00,399.0,meteohub,2013-11-16 17:05:00,
2013-11-16 13:10:00,84.7,76.3,29.94,North,359,8.0,12.0,76,0.00,,,0.00,394.0,meteohub,2013-11-16 17:10:00,
2013-11-16 13:15:00,84.4,75.2,29.94,North,350,9.0,14.0,74,0.00,,,0.00,340.0,meteohub,2013-11-16 17:15:00,
2013-11-16 13:20:00,84.0,75.2,29.94,North,0,3.0,14.0,75,0.00,,,0.00,327.0,meteohub,2013-11-16 17:20:00,
2013-11-16 13:25:00,84.0,75.2,29.94,North,354,5.0,13.0,75,0.00,,,0.00,338.0,meteohub,2013-11-16 17:25:00,
2013-11-16 13:30:00,84.0,75.2,29.93,NE,45,5.0,13.0,75,0.00,,,0.00,355.0,meteohub,2013-11-16 17:30:00,
2013-11-16 13:35:00,84.0,74.8,29.93,NE,38,10.0,12.0,74,0.00,,,0.00,350.0,meteohub,2013-11-16 17:35:00,
2013-11-16 13:40:00,84.0,74.8,29.93,NE,47,6.0,12.0,74,0.00,,,0.00,313.0,meteohub,2013-11-16 17:40:00,
2013-11-16 13:45:00,84.4,76.8,29.92,NE,41,6.0,12.0,78,0.00,,,0.00,243.0,meteohub,2013-11-16 17:45:00,
2013-11-16 13:50:00,84.0,76.5,29.92,NNE,23,0.0,13.0,78,0.00,,,0.00,199.0,meteohub,2013-11-16 17:50:00,
2013-11-16 13:55:00,84.0,76.8,29.92,NNE,16,5.0,13.0,79,0.00,,,0.00,194.0,meteohub,2013-11-16 17:55:00,
2013-11-16 14:00:00,84.4,77.5,29.92,ENE,68,0.0,12.0,80,0.00,,,0.00,239.0,meteohub,2013-11-16 18:00:00,
2013-11-16 14:05:00,84.4,77.5,29.92,NNE,28,0.0,8.0,80,0.00,,,0.00,882.0,meteohub,2013-11-16 18:05:00,
2013-11-16 14:10:00,84.7,77.9,29.92,NE,41,6.0,7.0,80,0.00,,,0.00,716.0,meteohub,2013-11-16 18:10:00,
2013-11-16 14:15:00,84.9,76.8,29.91,NE,35,8.0,8.0,77,0.00,,,0.00,450.0,meteohub,2013-11-16 18:15:00,
2013-11-16 14:20:00,85.1,77.0,29.91,NE,44,5.0,11.0,77,0.00,,,0.00,679.0,meteohub,2013-11-16 18:20:00,
2013-11-16 14:25:00,85.5,77.7,29.91,NNE,31,9.0,11.0,78,0.00,,,0.00,674.0,meteohub,2013-11-16 18:25:00,
2013-11-16 14:30:00,85.6,77.5,29.91,NNE,31,0.0,13.0,77,0.00,,,0.00,648.0,meteohub,2013-11-16 18:30:00,
2013-11-16 14:35:00,86.4,78.3,29.91,North,359,0.0,13.0,77,0.00,,,0.00,623.0,meteohub,2013-11-16 18:35:00,
2013-11-16 14:40:00,86.4,77.0,29.91,NE,54,4.0,10.0,74,0.00,,,0.00,663.0,meteohub,2013-11-16 18:40:00,
2013-11-16 14:45:00,86.7,78.3,29.90,NE,48,6.0,8.0,76,0.00,,,0.00,616.0,meteohub,2013-11-16 18:45:00,
2013-11-16 14:50:00,86.7,78.6,29.90,ENE,66,7.0,13.0,77,0.00,,,0.00,642.0,meteohub,2013-11-16 18:50:00,
2013-11-16 14:55:00,86.5,78.4,29.90,ENE,66,7.0,13.0,77,0.00,,,0.00,567.0,meteohub,2013-11-16 18:55:00,
2013-11-16 15:01:00,86.4,78.6,29.90,North,8,6.0,13.0,78,0.00,,,0.00,144.0,meteohub,2013-11-16 19:01:00,
2013-11-16 15:06:00,86.2,78.4,29.90,NE,47,6.0,10.0,78,0.00,,,0.00,123.0,meteohub,2013-11-16 19:06:00,
2013-11-16 15:11:00,85.6,77.9,29.90,NNE,31,7.0,11.0,78,0.00,,,0.00,190.0,meteohub,2013-11-16 19:11:00,
2013-11-16 15:16:00,85.5,78.3,29.90,NNE,23,6.0,11.0,79,0.00,,,0.00,164.0,meteohub,2013-11-16 19:16:00,
2013-11-16 15:21:00,85.3,78.4,29.90,NE,38,0.0,11.0,80,0.00,,,0.00,524.0,meteohub,2013-11-16 19:21:00,
2013-11-16 15:26:00,85.1,77.9,29.90,North,0,7.0,11.0,79,0.00,,,0.00,116.0,meteohub,2013-11-16 19:26:00,
2013-11-16 15:31:00,84.9,78.1,29.89,NNE,20,10.0,10.0,80,0.00,,,0.00,141.0,meteohub,2013-11-16 19:31:00,
2013-11-16 15:36:00,84.7,77.9,29.89,NE,41,0.0,12.0,80,0.00,,,0.00,141.0,meteohub,2013-11-16 19:36:00,
2013-11-16 15:41:00,84.6,77.7,29.89,NE,44,5.0,12.0,80,0.00,,,0.00,384.0,meteohub,2013-11-16 19:41:00,
2013-11-16 15:46:00,84.6,77.4,29.89,NNE,27,5.0,11.0,79,0.00,,,0.00,91.0,meteohub,2013-11-16 19:46:00,
2013-11-16 15:51:00,84.4,76.8,29.89,North,7,2.0,10.0,78,0.00,,,0.00,100.0,meteohub,2013-11-16 19:51:00,
2013-11-16 15:56:00,84.4,77.2,29.89,NNE,18,0.0,11.0,79,0.00,,,0.00,113.0,meteohub,2013-11-16 19:56:00,
2013-11-16 16:01:00,84.0,76.8,29.89,NE,34,0.0,11.0,79,0.00,,,0.00,90.0,meteohub,2013-11-16 20:01:00,
2013-11-16 16:06:00,84.0,77.2,29.89,NNE,16,0.0,11.0,80,0.00,,,0.00,106.0,meteohub,2013-11-16 20:06:00,
2013-11-16 16:11:00,84.0,77.2,29.89,North,1,0.0,10.0,80,0.00,,,0.00,88.0,meteohub,2013-11-16 20:11:00,
2013-11-16 16:16:00,84.0,77.5,29.89,ENE,59,2.0,10.0,81,0.00,,,0.00,134.0,meteohub,2013-11-16 20:16:00,
2013-11-16 16:21:00,84.0,77.5,29.89,NE,47,3.0,10.0,81,0.00,,,0.00,178.0,meteohub,2013-11-16 20:21:00,
2013-11-16 16:26:00,84.0,77.5,29.89,NE,34,8.0,8.0,81,0.00,,,0.00,97.0,meteohub,2013-11-16 20:26:00,
2013-11-16 16:31:00,84.0,77.5,29.89,ENE,58,2.0,10.0,81,0.00,,,0.00,58.0,meteohub,2013-11-16 20:31:00,
2013-11-16 16:36:00,84.0,77.5,29.89,NE,40,4.0,10.0,81,0.00,,,0.00,42.0,meteohub,2013-11-16 20:36:00,
2013-11-16 16:41:00,84.0,77.9,29.89,NNE,16,0.0,10.0,82,0.00,,,0.00,40.0,meteohub,2013-11-16 20:41:00,
2013-11-16 16:46:00,83.8,77.7,29.89,NNE,31,5.0,10.0,82,0.00,,,0.00,48.0,meteohub,2013-11-16 20:46:00,
2013-11-16 16:51:00,83.7,77.9,29.89,NE,34,0.0,9.0,83,0.00,,,0.00,63.0,meteohub,2013-11-16 20:51:00,
2013-11-16 16:57:00,83.5,77.4,29.89,NNE,31,0.0,7.0,82,0.00,,,0.00,53.0,meteohub,2013-11-16 20:57:00,
2013-11-16 17:02:00,83.5,77.4,29.89,NNE,32,1.0,7.0,82,0.00,,,0.00,58.0,meteohub,2013-11-16 21:02:00,
2013-11-16 17:07:00,83.5,77.4,29.89,NE,40,0.0,8.0,82,0.00,,,0.00,69.0,meteohub,2013-11-16 21:07:00,
2013-11-16 17:12:00,83.5,77.7,29.89,North,0,5.0,8.0,83,0.00,,,0.00,63.0,meteohub,2013-11-16 21:12:00,
2013-11-16 17:17:00,83.1,77.4,29.89,NNE,28,7.0,10.0,83,0.00,,,0.00,48.0,meteohub,2013-11-16 21:17:00,
2013-11-16 17:22:00,83.1,77.4,29.89,North,0,6.0,10.0,83,0.00,,,0.00,26.0,meteohub,2013-11-16 21:22:00,
2013-11-16 17:27:00,82.9,77.5,29.89,NE,35,7.0,10.0,84,0.00,,,0.00,21.0,meteohub,2013-11-16 21:27:00,
2013-11-16 17:32:00,82.8,77.4,29.90,NE,40,0.0,10.0,84,0.00,,,0.00,16.0,meteohub,2013-11-16 21:32:00,
2013-11-16 17:37:00,82.8,77.4,29.90,NE,40,0.0,10.0,84,0.00,,,0.00,14.0,meteohub,2013-11-16 21:37:00,
2013-11-16 17:42:00,82.6,77.2,29.90,NE,37,0.0,10.0,84,0.00,,,0.00,11.0,meteohub,2013-11-16 21:42:00,
2013-11-16 17:47:00,82.6,77.2,29.90,North,0,7.0,8.0,84,0.00,,,0.00,7.0,meteohub,2013-11-16 21:47:00,
2013-11-16 17:52:00,82.4,77.0,29.90,NNE,14,0.0,10.0,84,0.00,,,0.00,0.0,meteohub,2013-11-16 21:52:00,
2013-11-16 17:57:00,82.4,77.0,29.90,North,0,6.0,10.0,84,0.00,,,0.00,0.0,meteohub,2013-11-16 21:57:00,
2013-11-16 18:02:00,82.2,76.8,29.90,North,0,0.0,8.0,84,0.00,,,0.00,0.0,meteohub,2013-11-16 22:02:00,
2013-11-16 18:07:00,82.0,76.6,29.90,North,0,0.0,7.0,84,0.00,,,0.00,0.0,meteohub,2013-11-16 22:07:00,
2013-11-16 18:12:00,82.0,76.6,29.91,North,0,0.0,7.0,84,0.00,,,0.00,0.0,meteohub,2013-11-16 22:12:00,
2013-11-16 18:17:00,82.0,76.6,29.91,North,11,0.0,7.0,84,0.00,,,0.00,0.0,meteohub,2013-11-16 22:17:00,
2013-11-16 18:22:00,81.9,76.5,29.91,NNE,13,2.0,7.0,84,0.00,,,0.00,0.0,meteohub,2013-11-16 22:22:00,
2013-11-16 18:27:00,82.0,76.6,29.91,North,8,6.0,7.0,84,0.00,,,0.00,0.0,meteohub,2013-11-16 22:27:00,
2013-11-16 18:32:00,81.9,76.5,29.91,North,7,0.0,10.0,84,0.00,,,0.00,0.0,meteohub,2013-11-16 22:32:00,
2013-11-16 18:37:00,81.9,76.5,29.91,North,6,0.0,10.0,84,0.00,,,0.00,0.0,meteohub,2013-11-16 22:37:00,
2013-11-16 18:42:00,82.0,76.6,29.91,NNE,13,0.0,10.0,84,0.00,,,0.00,0.0,meteohub,2013-11-16 22:42:00,
2013-11-16 18:47:00,82.2,76.8,29.91,North,8,0.0,8.0,84,0.00,,,0.00,0.0,meteohub,2013-11-16 22:47:00,
2013-11-16 18:52:00,82.2,76.8,29.91,ENE,62,0.0,8.0,84,0.00,,,0.00,0.0,meteohub,2013-11-16 22:52:00,
2013-11-16 18:57:00,82.0,77.0,29.91,NE,51,3.0,8.0,85,0.00,,,0.00,0.0,meteohub,2013-11-16 22:57:00,
2013-11-16 19:02:00,81.9,76.8,29.91,NE,51,0.0,7.0,85,0.00,,,0.00,0.0,meteohub,2013-11-16 23:02:00,
2013-11-16 19:07:00,81.9,76.8,29.91,NE,49,0.0,7.0,85,0.00,,,0.00,0.0,meteohub,2013-11-16 23:07:00,
2013-11-16 19:12:00,81.7,76.6,29.92,NNE,28,0.0,6.0,85,0.00,,,0.00,0.0,meteohub,2013-11-16 23:12:00,
2013-11-16 19:17:00,81.7,76.6,29.92,NE,38,0.0,6.0,85,0.00,,,0.00,0.0,meteohub,2013-11-16 23:17:00,
2013-11-16 19:22:00,81.7,76.6,29.92,NE,37,0.0,6.0,85,0.00,,,0.00,0.0,meteohub,2013-11-16 23:22:00,
2013-11-16 19:27:00,81.9,76.8,29.92,NE,37,0.0,6.0,85,0.00,,,0.00,0.0,meteohub,2013-11-16 23:27:00,
2013-11-16 19:32:00,81.7,76.6,29.92,NE,38,0.0,8.0,85,0.00,,,0.00,0.0,meteohub,2013-11-16 23:32:00,
2013-11-16 19:37:00,81.7,76.6,29.92,NE,38,0.0,8.0,85,0.00,,,0.00,0.0,meteohub,2013-11-16 23:37:00,
2013-11-16 19:42:00,81.7,76.6,29.92,NE,40,0.0,8.0,85,0.00,,,0.00,0.0,meteohub,2013-11-16 23:42:00,
2013-11-16 19:47:00,81.7,76.6,29.92,NE,40,0.0,0.0,85,0.00,,,0.00,0.0,meteohub,2013-11-16 23:47:00,
2013-11-16 19:53:00,81.7,76.6,29.92,NE,41,0.0,0.0,85,0.00,,,0.00,0.0,meteohub,2013-11-16 23:53:00,
2013-11-16 19:58:00,81.7,76.6,29.92,NE,41,0.0,0.0,85,0.00,,,0.00,0.0,meteohub,2013-11-16 23:58:00,
2013-11-16 20:03:00,81.7,76.6,29.92,NE,44,0.0,0.0,85,0.00,,,0.00,0.0,meteohub,2013-11-17 00:03:00,
2013-11-16 20:08:00,81.3,76.6,29.92,NE,42,0.0,0.0,86,0.00,,,0.00,0.0,meteohub,2013-11-17 00:08:00,
2013-11-16 20:13:00,81.3,76.6,29.92,NE,42,0.0,0.0,86,0.00,,,0.00,0.0,meteohub,2013-11-17 00:13:00,
2013-11-16 20:18:00,81.3,76.6,29.92,NE,35,2.0,0.0,86,0.00,,,0.00,0.0,meteohub,2013-11-17 00:18:00,
2013-11-16 20:23:00,81.7,77.0,29.92,NE,34,0.0,6.0,86,0.00,,,0.00,0.0,meteohub,2013-11-17 00:23:00,
2013-11-16 20:28:00,81.7,77.0,29.93,NE,37,0.0,6.0,86,0.00,,,0.00,0.0,meteohub,2013-11-17 00:28:00,
2013-11-16 20:33:00,81.7,77.4,29.93,NE,48,0.0,6.0,87,0.00,,,0.00,0.0,meteohub,2013-11-17 00:33:00,
2013-11-16 20:38:00,81.7,77.4,29.93,NE,38,7.0,7.0,87,0.00,,,0.00,0.0,meteohub,2013-11-17 00:38:00,
2013-11-16 20:43:00,81.3,77.0,29.93,NNE,27,5.0,10.0,87,0.00,,,0.00,0.0,meteohub,2013-11-17 00:43:00,
2013-11-16 20:48:00,81.3,77.4,29.93,NNE,18,6.0,10.0,88,0.00,,,0.00,0.0,meteohub,2013-11-17 00:48:00,
2013-11-16 20:53:00,81.3,77.4,29.93,NNE,17,0.0,10.0,88,0.00,,,0.00,0.0,meteohub,2013-11-17 00:53:00,
2013-11-16 20:58:00,81.3,77.4,29.93,North,3,5.0,10.0,88,0.00,,,0.00,0.0,meteohub,2013-11-17 00:58:00,
2013-11-16 21:03:00,81.1,77.2,29.93,North,11,0.0,10.0,88,0.00,,,0.00,0.0,meteohub,2013-11-17 01:03:00,
2013-11-16 21:08:00,81.1,77.2,29.93,NNE,30,4.0,10.0,88,0.00,,,0.00,0.0,meteohub,2013-11-17 01:08:00,
2013-11-16 21:13:00,81.1,77.2,29.93,NE,34,1.0,8.0,88,0.00,,,0.00,0.0,meteohub,2013-11-17 01:13:00,
2013-11-16 21:18:00,81.1,77.2,29.93,NNE,25,0.0,9.0,88,0.00,,,0.00,0.0,meteohub,2013-11-17 01:18:00,
2013-11-16 21:23:00,81.1,77.2,29.93,NNE,23,0.0,9.0,88,0.00,,,0.00,0.0,meteohub,2013-11-17 01:23:00,
2013-11-16 21:28:00,81.1,77.2,29.93,NNE,28,4.0,9.0,88,0.00,,,0.00,0.0,meteohub,2013-11-17 01:28:00,
2013-11-16 21:33:00,81.1,77.2,29.93,ENE,59,0.0,8.0,88,0.00,,,0.00,0.0,meteohub,2013-11-17 01:33:00,
2013-11-16 21:38:00,81.1,77.2,29.93,NE,54,5.0,8.0,88,0.00,,,0.00,0.0,meteohub,2013-11-17 01:38:00,
2013-11-16 21:43:00,81.1,77.5,29.93,NE,49,0.0,8.0,89,0.00,,,0.00,0.0,meteohub,2013-11-17 01:43:00,
2013-11-16 21:48:00,81.1,77.5,29.93,NE,49,0.0,8.0,89,0.00,,,0.00,0.0,meteohub,2013-11-17 01:48:00,
2013-11-16 21:53:00,81.1,77.9,29.93,NE,48,0.0,7.0,90,0.00,,,0.00,0.0,meteohub,2013-11-17 01:53:00,
2013-11-16 21:58:00,81.1,77.9,29.94,NE,49,0.0,5.0,90,0.00,,,0.00,0.0,meteohub,2013-11-17 01:58:00,
2013-11-16 22:03:00,81.1,77.9,29.94,NE,48,0.0,0.0,90,0.00,,,0.00,0.0,meteohub,2013-11-17 02:03:00,
2013-11-16 22:08:00,81.0,77.7,29.94,NE,49,0.0,0.0,90,0.00,,,0.00,0.0,meteohub,2013-11-17 02:08:00,
2013-11-16 22:13:00,80.8,77.5,29.93,NE,44,0.0,7.0,90,0.00,,,0.00,0.0,meteohub,2013-11-17 02:13:00,
2013-11-16 22:18:00,80.4,77.2,29.93,NE,47,3.0,7.0,90,0.00,,,0.00,0.0,meteohub,2013-11-17 02:18:00,
2013-11-16 22:23:00,80.8,77.9,29.93,NE,44,0.0,8.0,91,0.00,,,0.00,0.0,meteohub,2013-11-17 02:23:00,
2013-11-16 22:28:00,80.4,77.2,29.94,NE,38,6.0,8.0,90,0.00,,,0.00,0.0,meteohub,2013-11-17 02:28:00,
2013-11-16 22:33:00,80.1,76.8,29.94,NNE,27,3.0,11.0,90,0.00,,,0.00,0.0,meteohub,2013-11-17 02:33:00,
2013-11-16 22:38:00,80.1,76.8,29.94,ENE,65,7.0,13.0,90,0.00,,,0.00,0.0,meteohub,2013-11-17 02:38:00,
2013-11-16 22:43:00,80.1,76.8,29.94,East,88,9.0,13.0,90,0.00,,,0.00,0.0,meteohub,2013-11-17 02:43:00,
2013-11-16 22:48:00,80.1,77.5,29.94,ENE,68,101.0,101.0,92,0.00,,,0.00,0.0,meteohub,2013-11-17 02:48:00,
2013-11-16 22:54:00,79.9,77.4,29.94,East,83,0.0,113.0,92,0.03,,,0.03,0.0,meteohub,2013-11-17 02:54:00,
2013-11-16 22:59:00,79.3,77.2,29.94,East,85,0.0,113.0,93,0.03,,,0.03,0.0,meteohub,2013-11-17 02:59:00,
2013-11-16 23:03:00,79.2,77.0,29.94,East,85,0.0,113.0,93,0.03,,,0.03,0.0,meteohub,2013-11-17 03:03:00,
2013-11-16 23:09:00,78.8,77.0,29.94,East,85,0.0,37.0,94,0.05,,,0.05,0.0,meteohub,2013-11-17 03:09:00,
2013-11-16 23:14:00,78.8,77.0,29.94,East,83,0.0,0.0,94,0.05,,,0.05,0.0,meteohub,2013-11-17 03:14:00,
2013-11-16 23:19:00,78.6,77.0,29.94,East,83,0.0,0.0,95,0.05,,,0.05,0.0,meteohub,2013-11-17 03:19:00,
2013-11-16 23:24:00,78.4,77.2,29.94,East,85,0.0,0.0,96,0.05,,,0.05,0.0,meteohub,2013-11-17 03:24:00,
2013-11-16 23:29:00,78.4,77.2,29.94,East,85,0.0,0.0,96,0.05,,,0.05,0.0,meteohub,2013-11-17 03:29:00,
2013-11-16 23:34:00,78.3,77.0,29.94,East,82,0.0,0.0,96,0.05,,,0.05,0.0,meteohub,2013-11-17 03:34:00,
2013-11-16 23:39:00,78.1,77.2,29.94,East,83,0.0,0.0,97,0.06,,,0.06,0.0,meteohub,2013-11-17 03:39:00,
2013-11-16 23:44:00,77.9,77.0,29.93,East,83,0.0,0.0,97,0.06,,,0.06,0.0,meteohub,2013-11-17 03:44:00,
2013-11-16 23:49:00,78.1,77.5,29.93,East,82,0.0,0.0,98,0.04,,,0.06,0.0,meteohub,2013-11-17 03:49:00,
2013-11-16 23:54:00,78.1,77.5,29.93,ENE,71,0.0,9.0,98,0.03,,,0.06,0.0,meteohub,2013-11-17 03:54:00,
2013-11-16 23:59:00,77.9,77.5,29.93,ENE,65,10.0,20.0,99,0.04,,,0.07,0.0,meteohub,2013-11-17 03:59:00,